GTI152 RJTT-RJFU
Flight info
| Callsign | GTI152 |
|---|---|
| Flight time | 1h 36m |
| Altitude | 28000 |
| Route | TIARA GUSRO Y20 KAMMY Y204 OHGIE |
| Aircraft | B77L/H-SDE1E2E3FGHIJ2J3J4J5M1RWXY/LB1D1 |
Departure
| Time | 2026-04-25 20:40 |
|---|---|
| Airport | Tokyo Haneda International Airport (RJTT) |
Arrival
| Time | 2026-04-25 22:17 |
|---|---|
| Airport | Nagasaki Airport (RJFU) |
| Time | Latitude | Longitude | Altitude | Speed | Heading |
|---|---|---|---|---|---|
| 2026-04-25 19:31 | 35.55832 | 139.77653 | 27 ft | 0 kts | 60° |
| 2026-04-25 20:15 | 35.55825 | 139.77638 | 27 ft | 4 kts | 60° |
| 2026-04-25 20:15 | 35.55811 | 139.77609 | 16 ft | 4 kts | 60° |
| 2026-04-25 20:15 | 35.55798 | 139.77581 | 10 ft | 4 kts | 60° |
| 2026-04-25 20:16 | 35.55784 | 139.77552 | 35 ft | 4 kts | 60° |
| 2026-04-25 20:16 | 35.55773 | 139.77524 | 31 ft | 4 kts | 71° |
| 2026-04-25 20:16 | 35.55767 | 139.77494 | 31 ft | 4 kts | 91° |
| 2026-04-25 20:16 | 35.55771 | 139.77464 | 32 ft | 4 kts | 117° |
| 2026-04-25 20:17 | 35.55786 | 139.77439 | 25 ft | 4 kts | 140° |
| 2026-04-25 20:17 | 35.55808 | 139.77421 | 26 ft | 4 kts | 152° |
| 2026-04-25 20:17 | 35.55832 | 139.77406 | 25 ft | 4 kts | 153° |
| 2026-04-25 20:17 | 35.55842 | 139.77400 | 26 ft | 0 kts | 149° |
| 2026-04-25 20:24 | 35.55841 | 139.77400 | 27 ft | 1 kts | 149° |
| 2026-04-25 20:24 | 35.55829 | 139.77409 | 27 ft | 4 kts | 149° |
| 2026-04-25 20:24 | 35.55791 | 139.77437 | 26 ft | 9 kts | 149° |
| 2026-04-25 20:24 | 35.55734 | 139.77478 | 26 ft | 10 kts | 150° |
| 2026-04-25 20:25 | 35.55676 | 139.77519 | 29 ft | 10 kts | 150° |
| 2026-04-25 20:25 | 35.55617 | 139.77561 | 28 ft | 11 kts | 150° |
| 2026-04-25 20:25 | 35.55548 | 139.77610 | 29 ft | 12 kts | 150° |
| 2026-04-25 20:25 | 35.55475 | 139.77661 | 30 ft | 12 kts | 150° |
| 2026-04-25 20:26 | 35.55404 | 139.77711 | 30 ft | 12 kts | 150° |
| 2026-04-25 20:26 | 35.55333 | 139.77761 | 30 ft | 12 kts | 149° |
| 2026-04-25 20:26 | 35.55262 | 139.77813 | 30 ft | 12 kts | 149° |
| 2026-04-25 20:26 | 35.55191 | 139.77864 | 27 ft | 12 kts | 150° |
| 2026-04-25 20:27 | 35.55108 | 139.77922 | 27 ft | 16 kts | 150° |
| 2026-04-25 20:27 | 35.55008 | 139.77993 | 27 ft | 17 kts | 150° |
| 2026-04-25 20:27 | 35.54917 | 139.78056 | 27 ft | 15 kts | 150° |
| 2026-04-25 20:27 | 35.54829 | 139.78119 | 27 ft | 15 kts | 149° |
| 2026-04-25 20:28 | 35.54740 | 139.78182 | 28 ft | 15 kts | 150° |
| 2026-04-25 20:28 | 35.54653 | 139.78244 | 28 ft | 15 kts | 150° |
| 2026-04-25 20:28 | 35.54564 | 139.78307 | 28 ft | 15 kts | 149° |
| 2026-04-25 20:28 | 35.54476 | 139.78370 | 28 ft | 15 kts | 150° |
| 2026-04-25 20:29 | 35.54388 | 139.78432 | 28 ft | 15 kts | 150° |
| 2026-04-25 20:29 | 35.54299 | 139.78495 | 29 ft | 15 kts | 150° |
| 2026-04-25 20:29 | 35.54209 | 139.78560 | 27 ft | 16 kts | 149° |
| 2026-04-25 20:29 | 35.54111 | 139.78633 | 29 ft | 17 kts | 148° |
| 2026-04-25 20:30 | 35.54008 | 139.78702 | 29 ft | 17 kts | 150° |
| 2026-04-25 20:30 | 35.53907 | 139.78775 | 30 ft | 17 kts | 149° |
| 2026-04-25 20:30 | 35.53806 | 139.78848 | 27 ft | 17 kts | 149° |
| 2026-04-25 20:30 | 35.53705 | 139.78920 | 25 ft | 17 kts | 150° |
| 2026-04-25 20:31 | 35.53603 | 139.78991 | 26 ft | 17 kts | 150° |
| 2026-04-25 20:31 | 35.53501 | 139.79062 | 27 ft | 17 kts | 149° |
| 2026-04-25 20:31 | 35.53403 | 139.79140 | 26 ft | 17 kts | 128° |
| 2026-04-25 20:31 | 35.53380 | 139.79276 | 28 ft | 17 kts | 68° |
| 2026-04-25 20:32 | 35.53442 | 139.79399 | 25 ft | 17 kts | 59° |
| 2026-04-25 20:32 | 35.53500 | 139.79525 | 27 ft | 17 kts | 60° |
| 2026-04-25 20:32 | 35.53560 | 139.79653 | 28 ft | 18 kts | 59° |
| 2026-04-25 20:32 | 35.53626 | 139.79786 | 31 ft | 18 kts | 59° |
| 2026-04-25 20:33 | 35.53682 | 139.79906 | 29 ft | 12 kts | 60° |
| 2026-04-25 20:33 | 35.53709 | 139.79970 | 31 ft | 8 kts | 71° |
| 2026-04-25 20:33 | 35.53688 | 139.80033 | 31 ft | 9 kts | 139° |
| 2026-04-25 20:33 | 35.53655 | 139.80061 | 29 ft | 9 kts | 148° |
| 2026-04-25 20:34 | 35.53555 | 139.80135 | 32 ft | 19 kts | 149° |
| 2026-04-25 20:34 | 35.53437 | 139.80218 | 37 ft | 20 kts | 150° |
| 2026-04-25 20:34 | 35.53317 | 139.80301 | 42 ft | 20 kts | 150° |
| 2026-04-25 20:34 | 35.53213 | 139.80374 | 46 ft | 16 kts | 149° |
| 2026-04-25 20:35 | 35.53120 | 139.80443 | 50 ft | 15 kts | 149° |
| 2026-04-25 20:35 | 35.53048 | 139.80493 | 48 ft | 11 kts | 150° |
| 2026-04-25 20:35 | 35.52992 | 139.80525 | 49 ft | 8 kts | 169° |
| 2026-04-25 20:35 | 35.52940 | 139.80500 | 49 ft | 8 kts | 216° |
| 2026-04-25 20:36 | 35.52895 | 139.80454 | 50 ft | 8 kts | 220° |
| 2026-04-25 20:36 | 35.52852 | 139.80406 | 48 ft | 8 kts | 223° |
| 2026-04-25 20:36 | 35.52810 | 139.80357 | 49 ft | 8 kts | 223° |
| 2026-04-25 20:36 | 35.52767 | 139.80309 | 49 ft | 8 kts | 222° |
| 2026-04-25 20:37 | 35.52724 | 139.80260 | 51 ft | 8 kts | 222° |
| 2026-04-25 20:37 | 35.52680 | 139.80212 | 47 ft | 8 kts | 222° |
| 2026-04-25 20:37 | 35.52637 | 139.80164 | 47 ft | 8 kts | 222° |
| 2026-04-25 20:37 | 35.52585 | 139.80148 | 50 ft | 9 kts | 157° |
| 2026-04-25 20:38 | 35.52535 | 139.80196 | 49 ft | 9 kts | 135° |
| 2026-04-25 20:38 | 35.52489 | 139.80256 | 49 ft | 7 kts | 133° |
| 2026-04-25 20:38 | 35.52477 | 139.80272 | 50 ft | 0 kts | 133° |
| 2026-04-25 20:39 | 35.52476 | 139.80272 | 50 ft | 0 kts | 133° |
| 2026-04-25 20:39 | 35.52452 | 139.80304 | 50 ft | 10 kts | 133° |
| 2026-04-25 20:39 | 35.52434 | 139.80364 | 53 ft | 13 kts | 78° |
| 2026-04-25 20:40 | 35.52526 | 139.80488 | 52 ft | 16 kts | 44° |
| 2026-04-25 20:40 | 35.52746 | 139.80736 | 54 ft | 81 kts | 40° |
| 2026-04-25 20:40 | 35.53356 | 139.81413 | 62 ft | 150 kts | 40° |
| 2026-04-25 20:40 | 35.54131 | 139.82287 | 704 ft | 151 kts | 42° |
| 2026-04-25 20:41 | 35.54911 | 139.83174 | 1398 ft | 157 kts | 44° |
| 2026-04-25 20:41 | 35.55737 | 139.84114 | 2015 ft | 165 kts | 45° |
| 2026-04-25 20:41 | 35.56435 | 139.85285 | 2460 ft | 182 kts | 72° |
| 2026-04-25 20:41 | 35.56427 | 139.86881 | 2738 ft | 202 kts | 107° |
| 2026-04-25 20:42 | 35.55911 | 139.88615 | 3006 ft | 231 kts | 110° |
| 2026-04-25 20:42 | 35.55343 | 139.90548 | 3559 ft | 247 kts | 108° |
| 2026-04-25 20:42 | 35.54767 | 139.92550 | 4313 ft | 251 kts | 116° |
| 2026-04-25 20:42 | 35.53612 | 139.94187 | 5071 ft | 258 kts | 147° |
| 2026-04-25 20:43 | 35.51925 | 139.94929 | 5885 ft | 264 kts | 175° |
| 2026-04-25 20:43 | 35.50083 | 139.94734 | 6604 ft | 268 kts | 191° |
| 2026-04-25 20:43 | 35.48293 | 139.94087 | 7323 ft | 272 kts | 209° |
| 2026-04-25 20:43 | 35.46901 | 139.92525 | 8151 ft | 274 kts | 237° |
| 2026-04-25 20:44 | 35.46225 | 139.90340 | 9025 ft | 278 kts | 261° |
| 2026-04-25 20:44 | 35.46313 | 139.87971 | 9772 ft | 283 kts | 278° |
| 2026-04-25 20:44 | 35.46695 | 139.85582 | 10160 ft | 287 kts | 279° |
| 2026-04-25 20:44 | 35.47090 | 139.83158 | 10555 ft | 304 kts | 280° |
| 2026-04-25 20:45 | 35.47857 | 139.80641 | 10698 ft | 331 kts | 302° |
| 2026-04-25 20:45 | 35.49434 | 139.78446 | 10889 ft | 356 kts | 313° |
| 2026-04-25 20:45 | 35.51245 | 139.76251 | 11344 ft | 372 kts | 313° |
| 2026-04-25 20:45 | 35.53086 | 139.73978 | 12093 ft | 380 kts | 312° |
| 2026-04-25 20:46 | 35.54952 | 139.71637 | 13038 ft | 384 kts | 312° |
| 2026-04-25 20:46 | 35.56751 | 139.69217 | 13956 ft | 383 kts | 304° |
| 2026-04-25 20:46 | 35.58081 | 139.66381 | 14660 ft | 386 kts | 293° |
| 2026-04-25 20:46 | 35.59223 | 139.63403 | 15592 ft | 385 kts | 292° |
| 2026-04-25 20:47 | 35.60382 | 139.60434 | 16590 ft | 384 kts | 293° |
| 2026-04-25 20:47 | 35.61569 | 139.57485 | 17516 ft | 385 kts | 293° |
| 2026-04-25 20:47 | 35.62783 | 139.54533 | 18375 ft | 388 kts | 293° |
| 2026-04-25 20:47 | 35.64015 | 139.51561 | 19103 ft | 391 kts | 293° |
| 2026-04-25 20:48 | 35.65198 | 139.48595 | 19736 ft | 391 kts | 288° |
| 2026-04-25 20:48 | 35.65835 | 139.45356 | 20272 ft | 392 kts | 272° |
| 2026-04-25 20:48 | 35.65858 | 139.41997 | 20968 ft | 393 kts | 268° |
| 2026-04-25 20:48 | 35.65863 | 139.38622 | 21669 ft | 396 kts | 269° |
| 2026-04-25 20:49 | 35.65906 | 139.35230 | 22335 ft | 399 kts | 269° |
| 2026-04-25 20:49 | 35.65963 | 139.31796 | 22993 ft | 403 kts | 269° |
| 2026-04-25 20:49 | 35.66020 | 139.28336 | 23632 ft | 407 kts | 269° |
| 2026-04-25 20:49 | 35.66076 | 139.24844 | 24198 ft | 410 kts | 269° |
| 2026-04-25 20:50 | 35.66130 | 139.21352 | 24937 ft | 406 kts | 269° |
| 2026-04-25 20:50 | 35.66183 | 139.17908 | 25803 ft | 400 kts | 269° |
| 2026-04-25 20:50 | 35.66234 | 139.14504 | 26522 ft | 399 kts | 268° |
| 2026-04-25 20:50 | 35.66208 | 139.11107 | 27139 ft | 399 kts | 265° |
| 2026-04-25 20:51 | 35.66068 | 139.07673 | 27779 ft | 397 kts | 264° |
| 2026-04-25 20:51 | 35.65892 | 139.04296 | 28284 ft | 397 kts | 264° |
| 2026-04-25 20:51 | 35.65530 | 138.97407 | 28289 ft | 413 kts | 264° |
| 2026-04-25 20:52 | 35.65241 | 138.91460 | 28298 ft | 418 kts | 264° |
| 2026-04-25 20:52 | 35.64861 | 138.83181 | 28311 ft | 418 kts | 264° |
| 2026-04-25 20:53 | 35.64525 | 138.75962 | 28292 ft | 419 kts | 264° |
| 2026-04-25 20:53 | 35.64186 | 138.68810 | 28286 ft | 419 kts | 264° |
| 2026-04-25 20:54 | 35.63832 | 138.61655 | 28276 ft | 418 kts | 264° |
| 2026-04-25 20:54 | 35.63458 | 138.54534 | 28272 ft | 417 kts | 264° |
| 2026-04-25 20:55 | 35.63082 | 138.47415 | 28267 ft | 417 kts | 264° |
| 2026-04-25 20:55 | 35.62707 | 138.40350 | 28253 ft | 416 kts | 264° |
| 2026-04-25 20:56 | 35.62326 | 138.33242 | 28241 ft | 417 kts | 264° |
| 2026-04-25 20:56 | 35.61940 | 138.26116 | 28265 ft | 418 kts | 264° |
| 2026-04-25 20:57 | 35.61549 | 138.18973 | 28256 ft | 420 kts | 264° |
| 2026-04-25 20:57 | 35.61149 | 138.11791 | 28262 ft | 420 kts | 264° |
| 2026-04-25 20:58 | 35.60749 | 138.04660 | 28243 ft | 421 kts | 264° |
| 2026-04-25 20:58 | 35.60337 | 137.97495 | 28222 ft | 420 kts | 264° |
| 2026-04-25 20:59 | 35.59928 | 137.90329 | 28229 ft | 420 kts | 264° |
| 2026-04-25 20:59 | 35.59516 | 137.83187 | 28231 ft | 419 kts | 264° |
| 2026-04-25 21:00 | 35.59232 | 137.78406 | 28225 ft | 420 kts | 263° |
| 2026-04-25 21:01 | 35.58243 | 137.65318 | 28203 ft | 421 kts | 263° |
| 2026-04-25 21:01 | 35.57698 | 137.58159 | 28214 ft | 422 kts | 263° |
| 2026-04-25 21:02 | 35.56903 | 137.51038 | 28214 ft | 420 kts | 257° |
| 2026-04-25 21:02 | 35.55390 | 137.44111 | 28218 ft | 420 kts | 255° |
| 2026-04-25 21:03 | 35.53886 | 137.37186 | 28215 ft | 420 kts | 255° |
| 2026-04-25 21:03 | 35.52392 | 137.30301 | 28213 ft | 420 kts | 255° |
| 2026-04-25 21:04 | 35.50874 | 137.23363 | 28219 ft | 421 kts | 255° |
| 2026-04-25 21:04 | 35.49337 | 137.16425 | 28208 ft | 421 kts | 255° |
| 2026-04-25 21:05 | 35.47793 | 137.09500 | 28216 ft | 421 kts | 254° |
| 2026-04-25 21:05 | 35.46247 | 137.02566 | 28209 ft | 421 kts | 254° |
| 2026-04-25 21:06 | 35.44710 | 136.95684 | 28206 ft | 421 kts | 254° |
| 2026-04-25 21:06 | 35.43159 | 136.88760 | 28209 ft | 421 kts | 254° |
| 2026-04-25 21:07 | 35.41603 | 136.81839 | 28207 ft | 421 kts | 254° |
| 2026-04-25 21:07 | 35.40045 | 136.74931 | 28197 ft | 420 kts | 254° |
| 2026-04-25 21:08 | 35.38482 | 136.68015 | 28200 ft | 420 kts | 254° |
| 2026-04-25 21:08 | 35.37185 | 136.62292 | 28198 ft | 420 kts | 254° |
| 2026-04-25 21:09 | 35.34830 | 136.51934 | 28196 ft | 421 kts | 254° |
| 2026-04-25 21:09 | 35.33254 | 136.45022 | 28193 ft | 422 kts | 254° |
| 2026-04-25 21:10 | 35.31673 | 136.38104 | 28193 ft | 422 kts | 254° |
| 2026-04-25 21:10 | 35.30089 | 136.31189 | 28187 ft | 422 kts | 254° |
| 2026-04-25 21:11 | 35.28504 | 136.24276 | 28185 ft | 422 kts | 254° |
| 2026-04-25 21:11 | 35.26914 | 136.17361 | 28176 ft | 421 kts | 254° |
| 2026-04-25 21:12 | 35.25333 | 136.10504 | 28172 ft | 421 kts | 254° |
| 2026-04-25 21:12 | 35.23999 | 136.04735 | 28169 ft | 420 kts | 253° |
| 2026-04-25 21:13 | 35.22147 | 135.96746 | 28166 ft | 420 kts | 253° |
| 2026-04-25 21:13 | 35.20548 | 135.89864 | 28170 ft | 420 kts | 253° |
| 2026-04-25 21:14 | 35.18941 | 135.82976 | 28161 ft | 422 kts | 253° |
| 2026-04-25 21:14 | 35.17533 | 135.76013 | 28157 ft | 422 kts | 257° |
| 2026-04-25 21:15 | 35.16371 | 135.69033 | 28161 ft | 421 kts | 257° |
| 2026-04-25 21:15 | 35.15195 | 135.62012 | 28153 ft | 421 kts | 257° |
| 2026-04-25 21:16 | 35.14004 | 135.54983 | 28145 ft | 421 kts | 257° |
| 2026-04-25 21:16 | 35.12809 | 135.47976 | 28149 ft | 422 kts | 257° |
| 2026-04-25 21:17 | 35.11610 | 135.40963 | 28144 ft | 421 kts | 257° |
| 2026-04-25 21:17 | 35.10416 | 135.34000 | 28142 ft | 421 kts | 257° |
| 2026-04-25 21:18 | 35.09203 | 135.26959 | 28148 ft | 421 kts | 257° |
| 2026-04-25 21:18 | 35.08004 | 135.19954 | 28146 ft | 422 kts | 257° |
| 2026-04-25 21:19 | 35.06813 | 135.12987 | 28127 ft | 422 kts | 257° |
| 2026-04-25 21:19 | 35.05609 | 135.05976 | 28129 ft | 422 kts | 257° |
| 2026-04-25 21:20 | 35.04599 | 135.00103 | 28143 ft | 422 kts | 257° |
| 2026-04-25 21:20 | 35.03188 | 134.91961 | 28119 ft | 422 kts | 257° |
| 2026-04-25 21:21 | 35.01955 | 134.84968 | 28120 ft | 422 kts | 256° |
| 2026-04-25 21:21 | 35.00711 | 134.77968 | 28130 ft | 422 kts | 256° |
| 2026-04-25 21:22 | 34.99466 | 134.70960 | 28130 ft | 422 kts | 256° |
| 2026-04-25 21:22 | 34.97886 | 134.64083 | 28141 ft | 421 kts | 251° |
| 2026-04-25 21:23 | 34.96097 | 134.57273 | 28142 ft | 423 kts | 251° |
| 2026-04-25 21:23 | 34.94316 | 134.50438 | 28145 ft | 422 kts | 252° |
| 2026-04-25 21:24 | 34.92541 | 134.43616 | 28155 ft | 422 kts | 252° |
| 2026-04-25 21:24 | 34.90764 | 134.36788 | 28156 ft | 422 kts | 251° |
| 2026-04-25 21:25 | 34.88987 | 134.29977 | 28142 ft | 422 kts | 251° |
| 2026-04-25 21:25 | 34.87197 | 134.23152 | 28129 ft | 423 kts | 251° |
| 2026-04-25 21:26 | 34.85407 | 134.16338 | 28144 ft | 423 kts | 251° |
| 2026-04-25 21:26 | 34.83619 | 134.09553 | 28130 ft | 424 kts | 251° |
| 2026-04-25 21:27 | 34.81816 | 134.02724 | 28137 ft | 423 kts | 251° |
| 2026-04-25 21:27 | 34.80010 | 133.95904 | 28141 ft | 423 kts | 251° |
| 2026-04-25 21:28 | 34.78209 | 133.89103 | 28121 ft | 422 kts | 251° |
| 2026-04-25 21:28 | 34.76402 | 133.82304 | 28136 ft | 422 kts | 251° |
| 2026-04-25 21:29 | 34.74588 | 133.75514 | 28134 ft | 422 kts | 251° |
| 2026-04-25 21:29 | 34.72767 | 133.68709 | 28137 ft | 423 kts | 251° |
| 2026-04-25 21:30 | 34.70955 | 133.61944 | 28115 ft | 423 kts | 251° |
| 2026-04-25 21:30 | 34.69440 | 133.56300 | 28131 ft | 422 kts | 251° |
| 2026-04-25 21:31 | 34.67305 | 133.48381 | 28123 ft | 422 kts | 251° |
| 2026-04-25 21:31 | 34.65477 | 133.41611 | 28130 ft | 421 kts | 251° |
| 2026-04-25 21:32 | 34.63645 | 133.34843 | 28130 ft | 421 kts | 251° |
| 2026-04-25 21:32 | 34.61809 | 133.28077 | 28132 ft | 422 kts | 251° |
| 2026-04-25 21:33 | 34.59969 | 133.21316 | 28124 ft | 422 kts | 251° |
| 2026-04-25 21:33 | 34.58134 | 133.14593 | 28114 ft | 422 kts | 250° |
| 2026-04-25 21:34 | 34.56287 | 133.07832 | 28117 ft | 422 kts | 250° |
| 2026-04-25 21:34 | 34.54437 | 133.01080 | 28103 ft | 422 kts | 250° |
| 2026-04-25 21:35 | 34.52580 | 132.94318 | 28099 ft | 422 kts | 250° |
| 2026-04-25 21:35 | 34.50722 | 132.87571 | 28116 ft | 421 kts | 250° |
| 2026-04-25 21:36 | 34.48861 | 132.80830 | 28101 ft | 421 kts | 250° |
| 2026-04-25 21:36 | 34.46998 | 132.74096 | 28107 ft | 421 kts | 250° |
| 2026-04-25 21:37 | 34.45443 | 132.68501 | 28105 ft | 422 kts | 250° |
| 2026-04-25 21:37 | 34.43260 | 132.60665 | 28110 ft | 422 kts | 250° |
| 2026-04-25 21:38 | 34.41375 | 132.53911 | 28105 ft | 423 kts | 250° |
| 2026-04-25 21:38 | 34.39484 | 132.47165 | 28100 ft | 423 kts | 250° |
| 2026-04-25 21:39 | 34.37588 | 132.40404 | 28102 ft | 423 kts | 250° |
| 2026-04-25 21:39 | 34.35695 | 132.33672 | 28104 ft | 423 kts | 250° |
| 2026-04-25 21:40 | 34.33795 | 132.26930 | 28091 ft | 423 kts | 250° |
| 2026-04-25 21:40 | 34.31893 | 132.20196 | 28104 ft | 423 kts | 250° |
| 2026-04-25 21:41 | 34.29982 | 132.13446 | 28094 ft | 424 kts | 250° |
| 2026-04-25 21:41 | 34.28082 | 132.06760 | 28103 ft | 423 kts | 250° |
| 2026-04-25 21:42 | 34.26166 | 132.00020 | 28100 ft | 424 kts | 250° |
| 2026-04-25 21:42 | 34.24237 | 131.93268 | 28068 ft | 424 kts | 250° |
| 2026-04-25 21:43 | 34.22317 | 131.86547 | 28104 ft | 423 kts | 250° |
| 2026-04-25 21:43 | 34.20390 | 131.79821 | 28077 ft | 424 kts | 250° |
| 2026-04-25 21:44 | 34.18460 | 131.73097 | 28084 ft | 424 kts | 249° |
| 2026-04-25 21:45 | 34.15542 | 131.62967 | 28084 ft | 426 kts | 249° |
| 2026-04-25 21:45 | 34.13586 | 131.56211 | 28068 ft | 427 kts | 249° |
| 2026-04-25 21:46 | 34.11628 | 131.49442 | 28053 ft | 428 kts | 249° |
| 2026-04-25 21:46 | 34.09660 | 131.42657 | 28057 ft | 428 kts | 249° |
| 2026-04-25 21:47 | 34.07687 | 131.35877 | 28047 ft | 428 kts | 249° |
| 2026-04-25 21:47 | 34.05483 | 131.29227 | 28045 ft | 426 kts | 243° |
| 2026-04-25 21:48 | 34.02809 | 131.22905 | 28050 ft | 426 kts | 242° |
| 2026-04-25 21:48 | 34.00137 | 131.16514 | 28042 ft | 426 kts | 243° |
| 2026-04-25 21:49 | 33.97481 | 131.10141 | 28048 ft | 426 kts | 242° |
| 2026-04-25 21:49 | 33.94805 | 131.03738 | 28051 ft | 427 kts | 242° |
| 2026-04-25 21:50 | 33.92138 | 130.97349 | 28054 ft | 427 kts | 242° |
| 2026-04-25 21:50 | 33.90822 | 130.94192 | 28035 ft | 413 kts | 242° |
| 2026-04-25 21:50 | 33.89564 | 130.91174 | 28026 ft | 394 kts | 242° |
| 2026-04-25 21:50 | 33.88760 | 130.89249 | 28028 ft | 382 kts | 242° |
| 2026-04-25 21:51 | 33.87210 | 130.85540 | 28029 ft | 360 kts | 242° |
| 2026-04-25 21:51 | 33.86109 | 130.82910 | 28024 ft | 345 kts | 242° |
| 2026-04-25 21:51 | 33.85030 | 130.80335 | 28037 ft | 343 kts | 242° |
| 2026-04-25 21:52 | 33.82880 | 130.75216 | 28035 ft | 344 kts | 242° |
| 2026-04-25 21:52 | 33.81804 | 130.72655 | 27746 ft | 342 kts | 242° |
| 2026-04-25 21:52 | 33.81092 | 130.70961 | 27441 ft | 342 kts | 242° |
| 2026-04-25 21:52 | 33.80021 | 130.68413 | 26899 ft | 341 kts | 242° |
| 2026-04-25 21:53 | 33.78571 | 130.64990 | 26462 ft | 349 kts | 242° |
| 2026-04-25 21:53 | 33.77451 | 130.62340 | 26477 ft | 362 kts | 242° |
| 2026-04-25 21:53 | 33.76320 | 130.59649 | 26362 ft | 359 kts | 242° |
| 2026-04-25 21:53 | 33.75564 | 130.57849 | 26131 ft | 356 kts | 242° |
| 2026-04-25 21:54 | 33.74462 | 130.55229 | 25764 ft | 352 kts | 242° |
| 2026-04-25 21:54 | 33.73354 | 130.52599 | 25130 ft | 355 kts | 241° |
| 2026-04-25 21:54 | 33.72241 | 130.49964 | 24455 ft | 348 kts | 241° |
| 2026-04-25 21:54 | 33.71153 | 130.47387 | 23662 ft | 349 kts | 241° |
| 2026-04-25 21:55 | 33.70024 | 130.44727 | 22417 ft | 366 kts | 242° |
| 2026-04-25 21:55 | 33.68779 | 130.42001 | 21677 ft | 381 kts | 234° |
| 2026-04-25 21:55 | 33.67016 | 130.39519 | 21726 ft | 402 kts | 225° |
| 2026-04-25 21:55 | 33.64836 | 130.37262 | 21736 ft | 424 kts | 216° |
| 2026-04-25 21:56 | 33.62224 | 130.35437 | 21776 ft | 445 kts | 208° |
| 2026-04-25 21:56 | 33.60399 | 130.34334 | 21879 ft | 439 kts | 208° |
| 2026-04-25 21:56 | 33.56819 | 130.32239 | 21965 ft | 425 kts | 207° |
| 2026-04-25 21:56 | 33.54155 | 130.30668 | 21920 ft | 418 kts | 208° |
| 2026-04-25 21:57 | 33.51600 | 130.29135 | 21862 ft | 413 kts | 208° |
| 2026-04-25 21:57 | 33.49063 | 130.27592 | 21822 ft | 408 kts | 208° |
| 2026-04-25 21:57 | 33.46542 | 130.26048 | 21777 ft | 398 kts | 208° |
| 2026-04-25 21:57 | 33.44136 | 130.24572 | 21187 ft | 381 kts | 208° |
| 2026-04-25 21:58 | 33.41833 | 130.23158 | 20505 ft | 361 kts | 208° |
| 2026-04-25 21:58 | 33.39641 | 130.21815 | 20005 ft | 348 kts | 209° |
| 2026-04-25 21:58 | 33.37513 | 130.20523 | 19859 ft | 337 kts | 209° |
| 2026-04-25 21:58 | 33.35441 | 130.19266 | 19825 ft | 332 kts | 209° |
| 2026-04-25 21:59 | 33.33390 | 130.17925 | 19815 ft | 338 kts | 216° |
| 2026-04-25 21:59 | 33.31670 | 130.16000 | 19822 ft | 342 kts | 229° |
| 2026-04-25 21:59 | 33.30137 | 130.13802 | 19836 ft | 348 kts | 230° |
| 2026-04-25 22:00 | 33.27144 | 130.09519 | 19075 ft | 320 kts | 230° |
| 2026-04-25 22:00 | 33.25746 | 130.07561 | 18496 ft | 307 kts | 229° |
| 2026-04-25 22:00 | 33.24360 | 130.05632 | 17730 ft | 298 kts | 229° |
| 2026-04-25 22:00 | 33.23018 | 130.03767 | 16881 ft | 294 kts | 229° |
| 2026-04-25 22:01 | 33.21706 | 130.01947 | 16011 ft | 292 kts | 229° |
| 2026-04-25 22:01 | 33.20383 | 130.00113 | 15144 ft | 290 kts | 229° |
| 2026-04-25 22:01 | 33.19067 | 129.98290 | 14316 ft | 289 kts | 229° |
| 2026-04-25 22:01 | 33.18185 | 129.97069 | 13762 ft | 287 kts | 228° |
| 2026-04-25 22:02 | 33.16469 | 129.94697 | 12695 ft | 281 kts | 228° |
| 2026-04-25 22:02 | 33.15201 | 129.92941 | 11866 ft | 279 kts | 228° |
| 2026-04-25 22:02 | 33.13930 | 129.91184 | 10995 ft | 280 kts | 228° |
| 2026-04-25 22:02 | 33.12657 | 129.89426 | 10172 ft | 279 kts | 228° |
| 2026-04-25 22:03 | 33.11399 | 129.87701 | 9500 ft | 271 kts | 225° |
| 2026-04-25 22:03 | 33.09896 | 129.86457 | 8843 ft | 260 kts | 198° |
| 2026-04-25 22:03 | 33.08149 | 129.86109 | 8218 ft | 252 kts | 179° |
| 2026-04-25 22:03 | 33.06440 | 129.86400 | 7564 ft | 248 kts | 166° |
| 2026-04-25 22:04 | 33.04782 | 129.86947 | 6880 ft | 246 kts | 163° |
| 2026-04-25 22:04 | 33.03156 | 129.87519 | 6275 ft | 240 kts | 163° |
| 2026-04-25 22:04 | 33.01593 | 129.88066 | 5986 ft | 232 kts | 163° |
| 2026-04-25 22:04 | 33.00038 | 129.88605 | 5729 ft | 233 kts | 163° |
| 2026-04-25 22:05 | 32.98517 | 129.89124 | 5412 ft | 222 kts | 163° |
| 2026-04-25 22:05 | 32.97059 | 129.89617 | 5168 ft | 214 kts | 163° |
| 2026-04-25 22:05 | 32.95662 | 129.90084 | 4984 ft | 208 kts | 163° |
| 2026-04-25 22:05 | 32.94284 | 129.90544 | 4682 ft | 203 kts | 163° |
| 2026-04-25 22:06 | 32.92948 | 129.90989 | 4421 ft | 196 kts | 163° |
| 2026-04-25 22:06 | 32.91646 | 129.91422 | 4189 ft | 193 kts | 163° |
| 2026-04-25 22:06 | 32.90371 | 129.91885 | 4026 ft | 188 kts | 156° |
| 2026-04-25 22:06 | 32.89196 | 129.92566 | 3967 ft | 190 kts | 151° |
| 2026-04-25 22:07 | 32.88016 | 129.93309 | 3903 ft | 193 kts | 150° |
| 2026-04-25 22:07 | 32.87231 | 129.93805 | 3870 ft | 190 kts | 151° |
| 2026-04-25 22:07 | 32.85717 | 129.94757 | 3776 ft | 177 kts | 150° |
| 2026-04-25 22:07 | 32.84648 | 129.95430 | 3722 ft | 172 kts | 150° |
| 2026-04-25 22:08 | 32.83594 | 129.96089 | 3639 ft | 171 kts | 150° |
| 2026-04-25 22:08 | 32.82539 | 129.96748 | 3602 ft | 173 kts | 151° |
| 2026-04-25 22:08 | 32.81465 | 129.97416 | 3556 ft | 175 kts | 150° |
| 2026-04-25 22:08 | 32.80392 | 129.98085 | 3498 ft | 172 kts | 150° |
| 2026-04-25 22:09 | 32.79347 | 129.98733 | 3471 ft | 169 kts | 151° |
| 2026-04-25 22:09 | 32.78301 | 129.99382 | 3423 ft | 170 kts | 150° |
| 2026-04-25 22:09 | 32.77263 | 130.00026 | 3361 ft | 166 kts | 150° |
| 2026-04-25 22:09 | 32.76259 | 130.00647 | 3296 ft | 159 kts | 150° |
| 2026-04-25 22:10 | 32.75328 | 130.01222 | 3251 ft | 149 kts | 150° |
| 2026-04-25 22:10 | 32.74413 | 130.01790 | 3202 ft | 150 kts | 150° |
| 2026-04-25 22:10 | 32.73577 | 130.02526 | 3155 ft | 150 kts | 130° |
| 2026-04-25 22:10 | 32.73062 | 130.03591 | 3122 ft | 150 kts | 108° |
| 2026-04-25 22:11 | 32.72938 | 130.04822 | 3076 ft | 151 kts | 86° |
| 2026-04-25 22:11 | 32.73229 | 130.06016 | 3028 ft | 153 kts | 64° |
| 2026-04-25 22:11 | 32.73911 | 130.06989 | 2977 ft | 155 kts | 40° |
| 2026-04-25 22:11 | 32.74886 | 130.07551 | 2926 ft | 158 kts | 15° |
| 2026-04-25 22:12 | 32.75956 | 130.07346 | 2859 ft | 162 kts | 331° |
| 2026-04-25 22:12 | 32.76902 | 130.06594 | 2848 ft | 165 kts | 327° |
| 2026-04-25 22:12 | 32.77842 | 130.05818 | 2780 ft | 164 kts | 327° |
| 2026-04-25 22:12 | 32.78462 | 130.05304 | 2744 ft | 164 kts | 326° |
| 2026-04-25 22:13 | 32.79647 | 130.04183 | 2640 ft | 161 kts | 321° |
| 2026-04-25 22:13 | 32.80493 | 130.03308 | 2604 ft | 161 kts | 320° |
| 2026-04-25 22:13 | 32.81342 | 130.02407 | 2468 ft | 167 kts | 320° |
| 2026-04-25 22:13 | 32.82198 | 130.01496 | 2247 ft | 163 kts | 320° |
| 2026-04-25 22:14 | 32.83026 | 130.00610 | 2037 ft | 160 kts | 320° |
| 2026-04-25 22:14 | 32.83850 | 129.99728 | 1820 ft | 159 kts | 320° |
| 2026-04-25 22:14 | 32.84668 | 129.98856 | 1601 ft | 156 kts | 320° |
| 2026-04-25 22:14 | 32.85474 | 129.97996 | 1399 ft | 156 kts | 320° |
| 2026-04-25 22:15 | 32.86278 | 129.97135 | 1182 ft | 155 kts | 320° |
| 2026-04-25 22:15 | 32.87081 | 129.96276 | 983 ft | 154 kts | 320° |
| 2026-04-25 22:15 | 32.87874 | 129.95436 | 789 ft | 152 kts | 320° |
| 2026-04-25 22:16 | 32.89441 | 129.93709 | 425 ft | 155 kts | 319° |
| 2026-04-25 22:16 | 32.90262 | 129.92845 | 213 ft | 158 kts | 319° |
| 2026-04-25 22:16 | 32.91085 | 129.91987 | 43 ft | 153 kts | 319° |
| 2026-04-25 22:16 | 32.91802 | 129.91227 | 27 ft | 116 kts | 318° |
| 2026-04-25 22:17 | 32.92270 | 129.90733 | 28 ft | 63 kts | 319° |
| 2026-04-25 22:17 | 32.92503 | 129.90485 | 30 ft | 32 kts | 318° |
| 2026-04-25 22:17 | 32.92607 | 129.90373 | 32 ft | 18 kts | 318° |
| 2026-04-25 22:17 | 32.92674 | 129.90315 | 30 ft | 11 kts | 345° |
| 2026-04-25 22:18 | 32.92740 | 129.90342 | 31 ft | 11 kts | 40° |
| 2026-04-25 22:18 | 32.92778 | 129.90403 | 27 ft | 9 kts | 70° |
| 2026-04-25 22:18 | 32.92764 | 129.90471 | 27 ft | 9 kts | 126° |
| 2026-04-25 22:18 | 32.92721 | 129.90525 | 27 ft | 9 kts | 135° |
| 2026-04-25 22:19 | 32.92669 | 129.90580 | 27 ft | 11 kts | 138° |
| 2026-04-25 22:19 | 32.92606 | 129.90648 | 27 ft | 13 kts | 138° |
| 2026-04-25 22:19 | 32.92531 | 129.90727 | 27 ft | 15 kts | 138° |
| 2026-04-25 22:19 | 32.92453 | 129.90810 | 27 ft | 13 kts | 138° |
| 2026-04-25 22:20 | 32.92380 | 129.90888 | 27 ft | 15 kts | 138° |
| 2026-04-25 22:20 | 32.92298 | 129.90977 | 28 ft | 17 kts | 138° |
| 2026-04-25 22:20 | 32.92212 | 129.91070 | 27 ft | 17 kts | 138° |
| 2026-04-25 22:20 | 32.92135 | 129.91151 | 27 ft | 13 kts | 139° |
| 2026-04-25 22:21 | 32.92065 | 129.91224 | 27 ft | 13 kts | 139° |
| 2026-04-25 22:21 | 32.91996 | 129.91297 | 27 ft | 13 kts | 139° |
| 2026-04-25 22:21 | 32.91928 | 129.91370 | 27 ft | 13 kts | 137° |
| 2026-04-25 22:21 | 32.91859 | 129.91445 | 27 ft | 13 kts | 138° |
| 2026-04-25 22:22 | 32.91790 | 129.91519 | 27 ft | 13 kts | 137° |
| 2026-04-25 22:22 | 32.91721 | 129.91593 | 27 ft | 13 kts | 137° |
| 2026-04-25 22:22 | 32.91652 | 129.91668 | 28 ft | 13 kts | 138° |
| 2026-04-25 22:22 | 32.91583 | 129.91741 | 27 ft | 13 kts | 138° |
| 2026-04-25 22:23 | 32.91555 | 129.91771 | 28 ft | 0 kts | 138° |
| 2026-04-25 22:23 | 32.91545 | 129.91782 | 28 ft | 8 kts | 138° |
| 2026-04-25 22:23 | 32.91491 | 129.91839 | 28 ft | 11 kts | 138° |
| 2026-04-25 22:23 | 32.91437 | 129.91897 | 27 ft | 9 kts | 138° |
| 2026-04-25 22:24 | 32.91392 | 129.91947 | 28 ft | 8 kts | 124° |
| 2026-04-25 22:24 | 32.91411 | 129.92005 | 27 ft | 8 kts | 51° |
| 2026-04-25 22:24 | 32.91440 | 129.92044 | 28 ft | 3 kts | 46° |
| 2026-04-25 22:24 | 32.91457 | 129.92064 | 28 ft | 3 kts | 47° |
| 2026-04-25 22:25 | 32.91470 | 129.92082 | 28 ft | 1 kts | 47° |
| 2026-04-25 22:25 | 32.91475 | 129.92087 | 28 ft | 1 kts | 47° |
| 2026-04-25 22:25 | 32.91475 | 129.92088 | 28 ft | 0 kts | 47° |